createdAt,value
2018-01-29T00:01:25.841Z,4.12
2018-01-29T00:03:53.614Z,6.75
2018-01-29T00:06:21.435Z,3.67
2018-01-29T00:08:49.205Z,5.12
2018-01-29T00:11:17.567Z,3.33
2018-01-29T00:13:45.378Z,3.87
2018-01-29T00:16:13.138Z,5.25
2018-01-29T00:18:40.906Z,5.22
2018-01-29T00:21:08.717Z,4.37
2018-01-29T00:23:36.477Z,4.60
2018-01-29T00:26:04.233Z,4.57
2018-01-29T00:28:32.056Z,3.53
2018-01-29T00:30:59.829Z,5.65
2018-01-29T00:33:27.585Z,4.35
2018-01-29T00:35:55.401Z,4.28
2018-01-29T00:38:23.158Z,5.65
2018-01-29T00:40:50.920Z,5.50
2018-01-29T00:43:18.766Z,3.40
2018-01-29T00:45:47.297Z,3.35
2018-01-29T00:48:15.064Z,4.25
2018-01-29T00:50:42.885Z,4.18
2018-01-29T00:53:10.647Z,4.28
2018-01-29T00:55:38.420Z,3.67
2018-01-29T00:58:06.237Z,3.97
2018-01-29T01:00:34.005Z,3.90
2018-01-29T01:03:02.530Z,3.75
2018-01-29T01:05:30.357Z,3.65
2018-01-29T01:07:58.884Z,3.12
2018-01-29T01:10:26.644Z,6.25
2018-01-29T01:12:54.630Z,4.05
2018-01-29T01:15:22.391Z,4.20
2018-01-29T01:17:50.149Z,3.45
2018-01-29T01:20:17.971Z,3.37
2018-01-29T01:22:45.745Z,3.40
2018-01-29T01:25:13.499Z,5.05
2018-01-29T01:27:41.330Z,3.33
2018-01-29T01:30:09.865Z,3.97
2018-01-29T01:32:37.619Z,3.30
2018-01-29T01:35:05.433Z,3.55
2018-01-29T01:37:33.193Z,5.03
2018-01-29T01:40:01.004Z,3.25
2018-01-29T01:42:28.972Z,4.12
2018-01-29T01:44:56.731Z,2.80
2018-01-29T01:47:24.488Z,3.10
2018-01-29T01:49:52.352Z,2.78
2018-01-29T01:52:20.113Z,5.00
2018-01-29T01:54:47.871Z,4.00
2018-01-29T01:57:15.902Z,3.50
2018-01-29T01:59:43.664Z,2.87
2018-01-29T02:02:11.421Z,4.37
2018-01-29T02:04:39.245Z,3.70
2018-01-29T02:07:07.006Z,3.12
2018-01-29T02:09:34.764Z,3.60
2018-01-29T02:12:02.584Z,4.07
2018-01-29T02:14:31.118Z,3.12
2018-01-29T02:16:58.891Z,3.25
2018-01-29T02:19:26.701Z,3.72
2018-01-29T02:21:54.471Z,3.12
2018-01-29T02:24:22.228Z,4.20
2018-01-29T02:26:50.041Z,3.60
2018-01-29T02:29:18.564Z,3.72
2018-01-29T02:31:47.084Z,3.53
2018-01-29T02:34:14.900Z,3.55
2018-01-29T02:36:43.422Z,4.72
2018-01-29T02:39:11.180Z,3.40
2018-01-29T02:41:39.001Z,10.55
2018-01-29T02:44:07.530Z,3.95
2018-01-29T02:46:35.312Z,3.70
2018-01-29T02:49:03.170Z,5.00
2018-01-29T02:51:30.955Z,3.50
2018-01-29T02:53:58.722Z,3.45
2018-01-29T02:56:27.330Z,4.30
2018-01-29T02:58:55.111Z,3.92
2018-01-29T03:01:22.869Z,3.28
2018-01-29T03:03:50.694Z,4.12
2018-01-29T03:06:19.219Z,3.00
2018-01-29T03:08:46.978Z,5.05
2018-01-29T03:11:14.797Z,3.47
2018-01-29T03:13:43.320Z,4.05
2018-01-29T03:16:11.113Z,4.00
2018-01-29T03:18:38.931Z,3.42
2018-01-29T03:21:06.688Z,3.65
2018-01-29T03:23:34.444Z,3.30
2018-01-29T03:26:02.260Z,3.40
2018-01-29T03:28:30.784Z,4.05
2018-01-29T03:30:59.325Z,2.75
2018-01-29T03:33:27.139Z,5.65
2018-01-29T03:35:54.911Z,2.75
2018-01-29T03:38:22.679Z,2.92
2018-01-29T03:40:50.506Z,4.18
2018-01-29T03:43:19.046Z,3.25
2018-01-29T03:45:46.808Z,2.92
2018-01-29T03:48:14.775Z,4.07
2018-01-29T03:50:42.554Z,3.35
2018-01-29T03:53:10.334Z,4.62
2018-01-29T03:55:38.916Z,3.62
2018-01-29T03:58:07.462Z,4.78
2018-01-29T04:00:35.233Z,4.30
2018-01-29T04:03:03.054Z,5.70
2018-01-29T04:05:30.813Z,4.30
2018-01-29T04:07:58.624Z,3.40
2018-01-29T04:10:26.444Z,3.10
2018-01-29T04:12:54.236Z,3.37
2018-01-29T04:15:22.777Z,5.10
2018-01-29T04:17:50.595Z,5.45
2018-01-29T04:20:18.353Z,4.20
2018-01-29T04:22:46.117Z,3.15
2018-01-29T04:25:28.741Z,3.67
2018-01-29T04:27:56.497Z,5.78
2018-01-29T04:30:24.268Z,4.00
2018-01-29T04:32:52.857Z,4.22
2018-01-29T04:35:21.385Z,4.37
2018-01-29T04:37:49.329Z,3.12
2018-01-29T04:40:17.141Z,4.68
2018-01-29T04:42:44.902Z,3.15
2018-01-29T04:45:12.666Z,3.62
2018-01-29T04:47:40.472Z,3.72
2018-01-29T04:50:08.274Z,2.90
2018-01-29T04:52:36.824Z,3.33
2018-01-29T04:55:04.644Z,5.32
2018-01-29T04:57:33.163Z,3.85
2018-01-29T05:00:00.921Z,3.50
2018-01-29T05:02:28.735Z,4.60
2018-01-29T05:04:56.501Z,5.37
2018-01-29T05:07:24.280Z,3.50
2018-01-29T05:09:52.866Z,4.18
2018-01-29T05:12:21.403Z,3.55
2018-01-29T05:14:49.226Z,3.30
2018-01-29T05:17:17.079Z,3.95
2018-01-29T05:19:44.848Z,4.15
2018-01-29T05:22:12.606Z,2.87
2018-01-29T05:24:40.480Z,5.40
2018-01-29T05:27:08.245Z,3.62
2018-01-29T05:29:36.002Z,4.50
2018-01-29T05:32:03.817Z,3.62
2018-01-29T05:34:31.583Z,3.53
2018-01-29T05:37:01.897Z,3.58
2018-01-29T05:39:29.724Z,3.35
2018-01-29T05:41:57.506Z,5.53
2018-01-29T05:44:25.281Z,3.25
2018-01-29T05:46:53.101Z,3.30
2018-01-29T05:49:20.891Z,4.30
2018-01-29T05:51:48.677Z,3.17
2018-01-29T05:54:16.507Z,3.28
2018-01-29T05:56:44.285Z,4.30
2018-01-29T05:59:12.069Z,3.95
2018-01-29T06:01:39.906Z,3.58
2018-01-29T06:04:08.445Z,2.90
2018-01-29T06:06:36.218Z,3.90
2018-01-29T06:09:04.067Z,3.03
2018-01-29T06:11:32.593Z,2.85
2018-01-29T06:14:00.358Z,2.33
2018-01-29T06:16:28.189Z,3.33
2018-01-29T06:18:55.954Z,2.65
2018-01-29T06:21:23.721Z,2.50
2018-01-29T06:23:51.536Z,2.90
2018-01-29T06:26:19.328Z,2.83
2018-01-29T06:28:47.089Z,3.15
2018-01-29T06:31:14.906Z,2.83
2018-01-29T06:33:42.664Z,3.53
2018-01-29T06:36:10.437Z,2.80
2018-01-29T06:38:38.264Z,4.07
2018-01-29T06:41:06.042Z,2.60
2018-01-29T06:43:33.807Z,5.70
2018-01-29T06:46:01.621Z,3.20
2018-01-29T06:48:29.380Z,3.08
2018-01-29T06:50:57.929Z,4.15
2018-01-29T06:53:25.794Z,3.30
2018-01-29T06:55:53.564Z,4.18
2018-01-29T06:58:21.342Z,3.00
2018-01-29T07:00:49.933Z,2.80
2018-01-29T07:03:17.700Z,4.32
2018-01-29T07:05:45.480Z,2.97
2018-01-29T07:08:13.304Z,3.03
2018-01-29T07:10:41.868Z,3.72
2018-01-29T07:13:09.650Z,3.15
2018-01-29T07:15:38.236Z,5.70
2018-01-29T07:18:06.775Z,5.45
2018-01-29T07:20:34.540Z,3.65
2018-01-29T07:23:02.356Z,3.15
2018-01-29T07:25:30.121Z,2.65
2018-01-29T07:27:57.895Z,3.30
2018-01-29T07:30:25.721Z,3.03
2018-01-29T07:32:54.253Z,2.75
2018-01-29T07:35:22.018Z,3.22
2018-01-29T07:37:49.819Z,3.97
2018-01-29T07:40:18.336Z,3.22
2018-01-29T07:42:46.086Z,3.03
2018-01-29T07:45:13.899Z,2.40
2018-01-29T07:47:41.660Z,2.55
2018-01-29T07:50:09.415Z,2.83
2018-01-29T07:52:37.231Z,3.25
2018-01-29T07:55:04.987Z,4.10
2018-01-29T07:57:32.738Z,2.90
2018-01-29T08:00:01.304Z,3.85
2018-01-29T08:02:29.060Z,3.05
2018-01-29T08:04:56.819Z,2.45
2018-01-29T08:07:24.622Z,2.17
2018-01-29T08:09:52.379Z,3.75
2018-01-29T08:12:20.131Z,2.30
2018-01-29T08:14:48.700Z,2.87
2018-01-29T08:17:17.225Z,2.75
2018-01-29T08:19:44.973Z,2.35
2018-01-29T08:22:12.783Z,2.87
2018-01-29T08:24:40.575Z,3.33
2018-01-29T08:27:09.099Z,3.37
2018-01-29T08:29:36.952Z,4.95
2018-01-29T08:32:04.707Z,3.83
2018-01-29T08:34:32.458Z,8.75
2018-01-29T08:37:00.264Z,12.27
2018-01-29T08:39:28.028Z,8.32
2018-01-29T08:41:55.786Z,5.60
2018-01-29T08:44:23.591Z,6.62
2018-01-29T08:46:52.106Z,5.55
2018-01-29T08:49:19.850Z,4.35
2018-01-29T08:51:48.451Z,8.05
2018-01-29T08:54:16.203Z,9.40
2018-01-29T08:56:43.969Z,7.97
2018-01-29T08:59:11.774Z,7.25
2018-01-29T09:01:39.534Z,5.20
2018-01-29T09:04:07.298Z,5.47
2018-01-29T09:06:35.103Z,4.55
2018-01-29T09:09:02.925Z,11.90
2018-01-29T09:11:30.679Z,9.02
2018-01-29T09:13:58.486Z,9.38
2018-01-29T09:16:26.239Z,7.20
2018-01-29T09:18:54.758Z,10.15
2018-01-29T09:21:22.570Z,7.20
2018-01-29T09:23:51.087Z,6.72
2018-01-29T09:26:18.838Z,7.20
2018-01-29T09:28:46.653Z,8.25
2018-01-29T09:31:14.412Z,4.07
2018-01-29T09:33:42.172Z,3.90
2018-01-29T09:36:10.003Z,7.85
2018-01-29T09:38:37.764Z,4.78
2018-01-29T09:41:05.513Z,8.00
2018-01-29T09:43:33.319Z,3.53
2018-01-29T09:46:01.097Z,7.20
2018-01-29T09:48:28.854Z,4.00
2018-01-29T09:50:56.670Z,6.50
2018-01-29T09:53:24.430Z,5.97
2018-01-29T09:55:52.178Z,5.30
2018-01-29T09:58:19.983Z,3.78
2018-01-29T10:00:47.734Z,5.05
2018-01-29T10:03:15.482Z,8.57
2018-01-29T10:05:43.284Z,11.50
2018-01-29T10:08:11.038Z,4.85
2018-01-29T10:10:38.794Z,4.40
2018-01-29T10:13:06.607Z,6.43
2018-01-29T10:15:34.350Z,6.87
2018-01-29T10:18:02.862Z,5.47
2018-01-29T10:20:30.662Z,4.82
2018-01-29T10:22:58.422Z,6.65
2018-01-29T10:25:26.208Z,7.43
2018-01-29T10:27:54.781Z,6.53
2018-01-29T10:30:22.532Z,13.38
2018-01-29T10:32:50.304Z,7.32
2018-01-29T10:35:18.105Z,6.00
2018-01-29T10:37:45.854Z,6.53
2018-01-29T10:40:14.373Z,7.68
2018-01-29T10:42:42.175Z,9.00
2018-01-29T10:45:09.922Z,11.38
2018-01-29T10:47:37.679Z,14.20
2018-01-29T10:50:05.483Z,11.05
2018-01-29T10:52:34.011Z,11.12
2018-01-29T10:55:01.758Z,11.75
2018-01-29T10:57:29.562Z,10.80
2018-01-29T10:59:57.310Z,9.07
2018-01-29T11:02:25.055Z,7.25
2018-01-29T11:04:52.854Z,6.20
2018-01-29T11:07:20.610Z,17.65
2018-01-29T11:09:48.371Z,12.02
2018-01-29T11:12:16.171Z,5.00
2018-01-29T11:14:43.918Z,3.42
2018-01-29T11:17:12.454Z,6.93
2018-01-29T11:19:41.403Z,6.12
2018-01-29T11:22:09.150Z,7.95
2018-01-29T11:24:37.663Z,3.08
2018-01-29T11:27:05.458Z,2.62
2018-01-29T11:29:33.213Z,2.35
2018-01-29T11:32:00.960Z,3.75
2018-01-29T11:34:28.765Z,3.75
2018-01-29T11:36:57.274Z,4.65
2018-01-29T11:39:25.048Z,3.28
2018-01-29T11:41:52.858Z,3.22
2018-01-29T11:44:20.605Z,4.05
2018-01-29T11:46:48.351Z,2.45
2018-01-29T11:49:16.163Z,2.75
2018-01-29T11:51:44.682Z,3.50
2018-01-29T11:54:12.430Z,4.15
2018-01-29T11:56:40.230Z,2.67
2018-01-29T11:59:07.982Z,3.50
2018-01-29T12:01:35.721Z,1.90
2018-01-29T12:04:03.526Z,3.78
2018-01-29T12:06:31.273Z,3.83
2018-01-29T12:08:59.023Z,2.80
2018-01-29T12:11:26.822Z,3.55
2018-01-29T12:13:55.355Z,3.28
2018-01-29T12:16:23.103Z,2.22
2018-01-29T12:18:50.907Z,2.72
2018-01-29T12:21:18.660Z,2.90
2018-01-29T12:23:46.414Z,4.05
2018-01-29T12:26:14.210Z,5.53
2018-01-29T12:28:41.961Z,3.67
2018-01-29T12:31:09.747Z,7.95
2018-01-29T12:33:38.309Z,2.28
2018-01-29T12:36:06.063Z,1.90
2018-01-29T12:38:33.809Z,5.90
2018-01-29T12:41:01.618Z,4.05
2018-01-29T12:43:29.378Z,4.18
2018-01-29T12:45:57.888Z,3.10
2018-01-29T12:48:25.683Z,4.32
2018-01-29T12:50:53.421Z,2.37
2018-01-29T12:53:21.170Z,4.65
2018-01-29T12:55:48.974Z,3.65
2018-01-29T12:58:16.730Z,2.90
2018-01-29T13:00:44.484Z,6.12
2018-01-29T13:03:12.277Z,4.60
2018-01-29T13:05:40.794Z,3.35
2018-01-29T13:08:08.546Z,4.60
2018-01-29T13:10:36.354Z,2.35
2018-01-29T13:13:04.099Z,1.85
2018-01-29T13:15:31.854Z,3.72
2018-01-29T13:17:59.654Z,2.40
2018-01-29T13:20:27.411Z,2.60
2018-01-29T13:22:55.156Z,4.87
2018-01-29T13:25:22.955Z,5.57
2018-01-29T13:27:51.477Z,4.78
2018-01-29T13:30:19.243Z,4.00
2018-01-29T13:32:47.041Z,3.90
2018-01-29T13:35:14.790Z,3.90
2018-01-29T13:37:42.560Z,2.30
2018-01-29T13:40:10.367Z,6.45
2018-01-29T13:42:38.127Z,3.37
2018-01-29T13:45:05.873Z,4.60
2018-01-29T13:47:34.449Z,2.95
2018-01-29T13:50:02.962Z,3.87
2018-01-29T13:52:30.706Z,3.65
2018-01-29T13:54:58.508Z,6.32
2018-01-29T13:57:26.258Z,3.05
2018-01-29T13:59:54.007Z,3.65
2018-01-29T14:02:21.840Z,4.18
2018-01-29T14:04:50.358Z,5.97
2018-01-29T14:07:18.106Z,3.53
2018-01-29T14:09:45.909Z,3.65
2018-01-29T14:12:13.664Z,6.12
2018-01-29T14:14:41.420Z,3.70
2018-01-29T14:17:09.225Z,4.05
2018-01-29T14:19:36.974Z,5.75
2018-01-29T14:22:04.726Z,8.68
2018-01-29T14:24:32.534Z,3.58
2018-01-29T14:27:00.286Z,3.78
2018-01-29T14:29:28.799Z,4.20
2018-01-29T14:31:56.604Z,5.20
2018-01-29T14:34:24.352Z,5.20
2018-01-29T14:36:52.094Z,6.55
2018-01-29T14:39:19.891Z,4.85
2018-01-29T14:41:47.634Z,3.20
2018-01-29T14:44:15.378Z,1.80
2018-01-29T14:46:43.175Z,6.87
2018-01-29T14:49:10.922Z,4.12
2018-01-29T14:51:38.710Z,2.95
2018-01-29T14:54:07.279Z,4.18
2018-01-29T14:56:35.030Z,7.25
2018-01-29T14:59:02.777Z,2.80
2018-01-29T15:01:30.580Z,4.00
2018-01-29T15:03:59.094Z,3.22
2018-01-29T15:06:26.857Z,3.62
2018-01-29T15:08:54.670Z,5.15
2018-01-29T15:11:22.422Z,3.25
2018-01-29T15:13:50.174Z,6.90
2018-01-29T15:16:17.986Z,4.03
2018-01-29T15:18:45.739Z,6.80
2018-01-29T15:21:14.255Z,6.47
2018-01-29T15:23:42.058Z,4.28
2018-01-29T15:26:09.807Z,3.37
2018-01-29T15:28:37.554Z,4.75
2018-01-29T15:31:05.354Z,2.95
2018-01-29T15:33:33.862Z,4.30
2018-01-29T15:36:01.606Z,6.97
2018-01-29T15:38:30.174Z,3.53
2018-01-29T15:40:58.730Z,2.90
2018-01-29T15:43:26.506Z,7.80
2018-01-29T15:45:54.323Z,5.55
2018-01-29T15:48:22.076Z,6.53
2018-01-29T15:50:49.836Z,5.05
2018-01-29T15:53:17.795Z,4.18
2018-01-29T15:55:45.546Z,5.75
2018-01-29T15:58:14.060Z,4.43
2018-01-29T16:00:41.894Z,4.87
2018-01-29T16:03:09.649Z,5.05
2018-01-29T16:05:37.395Z,6.10
2018-01-29T16:08:05.962Z,6.55
2018-01-29T16:10:33.711Z,10.20
2018-01-29T16:13:01.487Z,7.75
2018-01-29T16:15:29.281Z,7.07
2018-01-29T16:17:57.051Z,4.30
2018-01-29T16:20:24.805Z,4.87
2018-01-29T16:22:52.619Z,7.75
2018-01-29T16:25:20.379Z,5.75
2018-01-29T16:27:48.134Z,3.53
2018-01-29T16:30:15.941Z,4.28
2018-01-29T16:32:44.455Z,4.20
2018-01-29T16:35:12.208Z,4.53
2018-01-29T16:37:40.015Z,4.50
2018-01-29T16:40:07.774Z,5.70
2018-01-29T16:42:35.526Z,5.80
2018-01-29T16:45:03.322Z,5.28
2018-01-29T16:47:31.869Z,6.97
2018-01-29T16:49:59.628Z,2.92
2018-01-29T16:52:27.427Z,5.97
2018-01-29T16:54:55.941Z,4.20
2018-01-29T16:57:23.694Z,5.95
2018-01-29T16:59:51.490Z,4.12
2018-01-29T17:02:19.246Z,5.50
2018-01-29T17:04:46.990Z,7.22
2018-01-29T17:07:14.786Z,3.67
2018-01-29T17:09:42.539Z,4.12
2018-01-29T17:12:10.290Z,5.62
2018-01-29T17:14:38.085Z,5.07
2018-01-29T17:17:05.834Z,6.97
2018-01-29T17:19:33.582Z,7.93
2018-01-29T17:22:01.390Z,7.95
2018-01-29T17:24:29.898Z,4.80
2018-01-29T17:26:57.654Z,6.43
2018-01-29T17:29:25.458Z,8.43
2018-01-29T17:31:53.206Z,12.15
2018-01-29T17:34:20.957Z,6.62
2018-01-29T17:36:48.766Z,7.87
2018-01-29T17:39:16.518Z,8.55
2018-01-29T17:41:44.277Z,11.80
2018-01-29T17:44:12.082Z,7.15
2018-01-29T17:46:39.838Z,7.97
2018-01-29T17:49:07.593Z,7.35
2018-01-29T17:51:35.394Z,7.12
2018-01-29T17:54:03.158Z,6.65
2018-01-29T17:56:30.902Z,8.02
2018-01-29T17:58:58.721Z,5.20
2018-01-29T18:01:26.467Z,6.78
2018-01-29T18:03:54.232Z,11.70
2018-01-29T18:06:22.039Z,10.20
2018-01-29T18:08:49.799Z,12.13
2018-01-29T18:11:17.570Z,10.18
2018-01-29T18:13:45.945Z,10.27
2018-01-29T18:16:13.968Z,13.70
2018-01-29T18:18:41.737Z,14.43
2018-01-29T18:21:09.551Z,13.75
2018-01-29T18:23:37.803Z,13.80
2018-01-29T18:26:05.605Z,10.52
2018-01-29T18:28:34.173Z,14.80
2018-01-29T18:31:01.929Z,13.10
2018-01-29T18:33:29.690Z,9.70
2018-01-29T18:35:58.245Z,9.73
2018-01-29T18:38:26.757Z,9.80
2018-01-29T18:40:54.503Z,10.68
2018-01-29T18:43:22.815Z,10.00
2018-01-29T18:45:50.618Z,11.15
2018-01-29T18:48:19.139Z,11.30
2018-01-29T18:50:47.009Z,13.02
2018-01-29T18:53:14.767Z,12.48
2018-01-29T18:55:43.350Z,11.68
2018-01-29T18:58:11.165Z,9.98
2018-01-29T19:00:39.735Z,11.30
2018-01-29T19:03:07.555Z,13.07
2018-01-29T19:05:35.602Z,11.30
2018-01-29T19:08:03.375Z,9.88
2018-01-29T19:10:31.320Z,12.45
2018-01-29T19:12:59.145Z,10.38
2018-01-29T19:15:26.898Z,8.70
2018-01-29T19:17:54.643Z,8.52
2018-01-29T19:20:22.442Z,11.85
2018-01-29T19:22:50.190Z,8.48
2018-01-29T19:25:17.934Z,9.15
2018-01-29T19:27:45.750Z,9.63
2018-01-29T19:30:13.492Z,8.00
2018-01-29T19:32:42.006Z,10.02
2018-01-29T19:35:10.096Z,9.52
2018-01-29T19:37:37.891Z,8.20
2018-01-29T19:40:05.647Z,11.50
2018-01-29T19:42:33.502Z,8.88
2018-01-29T19:45:01.346Z,8.38
2018-01-29T19:47:29.106Z,9.50
2018-01-29T19:49:56.952Z,7.07
2018-01-29T19:52:24.690Z,8.88
2018-01-29T19:54:53.207Z,8.80
2018-01-29T19:57:21.018Z,10.13
2018-01-29T19:59:48.757Z,8.60
2018-01-29T20:02:16.502Z,7.70
2018-01-29T20:04:44.342Z,7.37
2018-01-29T20:07:12.135Z,9.30
2018-01-29T20:09:39.912Z,5.80
2018-01-29T20:12:07.749Z,4.53
2018-01-29T20:14:35.506Z,3.75
2018-01-29T20:17:03.276Z,4.25
2018-01-29T20:19:31.217Z,4.05
2018-01-29T20:21:59.054Z,3.72
2018-01-29T20:24:26.861Z,4.07
2018-01-29T20:26:54.794Z,6.28
2018-01-29T20:29:22.562Z,5.40
2018-01-29T20:31:50.408Z,7.47
2018-01-29T20:34:18.979Z,4.15
2018-01-29T20:36:47.598Z,5.10
2018-01-29T20:39:15.355Z,5.20
2018-01-29T20:41:43.317Z,5.57
2018-01-29T20:44:11.076Z,4.53
2018-01-29T20:46:38.830Z,6.85
2018-01-29T20:49:07.409Z,14.25
2018-01-29T20:51:36.899Z,14.77
2018-01-29T20:54:05.430Z,11.93
2018-01-29T20:56:33.239Z,16.80
2018-01-29T20:59:01.758Z,15.25
2018-01-29T21:01:29.507Z,7.57
2018-01-29T21:03:57.363Z,6.75
2018-01-29T21:06:25.150Z,5.25
2018-01-29T21:08:52.946Z,5.35
2018-01-29T21:11:20.752Z,5.07
2018-01-29T21:13:48.508Z,3.28
2018-01-29T21:16:17.021Z,5.90
2018-01-29T21:18:44.837Z,4.65
2018-01-29T21:21:13.355Z,3.95
2018-01-29T21:23:41.115Z,4.35
2018-01-29T21:26:08.917Z,4.40
2018-01-29T21:28:36.671Z,6.22
2018-01-29T21:31:04.431Z,3.70
2018-01-29T21:33:32.240Z,3.50
2018-01-29T21:36:00.752Z,3.65
2018-01-29T21:38:28.512Z,3.30
2018-01-29T21:40:56.316Z,2.80
2018-01-29T21:43:24.067Z,3.75
2018-01-29T21:45:51.815Z,3.78
2018-01-29T21:48:20.449Z,2.75
2018-01-29T21:50:48.193Z,2.28
2018-01-29T21:53:16.759Z,2.83
2018-01-29T21:55:44.620Z,2.70
2018-01-29T21:58:12.371Z,3.85
2018-01-29T22:00:40.145Z,3.22
2018-01-29T22:03:07.954Z,2.95
2018-01-29T22:05:35.698Z,3.37
2018-01-29T22:08:04.224Z,3.33
2018-01-29T22:10:32.029Z,3.78
2018-01-29T22:13:00.547Z,2.83
2018-01-29T22:15:28.298Z,4.22
2018-01-29T22:17:56.108Z,6.28
2018-01-29T22:20:23.845Z,3.60
2018-01-29T22:22:51.602Z,5.57
2018-01-29T22:25:19.406Z,2.95
2018-01-29T22:27:47.153Z,4.93
2018-01-29T22:30:14.922Z,3.95
2018-01-29T22:32:42.719Z,4.72
2018-01-29T22:35:11.225Z,2.75
2018-01-29T22:37:38.970Z,2.92
2018-01-29T22:40:06.821Z,2.90
2018-01-29T22:42:35.325Z,3.10
2018-01-29T22:45:03.072Z,2.28
2018-01-29T22:47:30.905Z,3.80
2018-01-29T22:49:58.675Z,2.42
2018-01-29T22:52:27.182Z,3.58
2018-01-29T22:54:54.994Z,4.53
2018-01-29T22:57:22.745Z,4.97
2018-01-29T22:59:50.536Z,2.85
2018-01-29T23:02:18.330Z,4.85
2018-01-29T23:04:46.083Z,4.57
2018-01-29T23:07:13.826Z,3.20
2018-01-29T23:09:42.395Z,2.47
2018-01-29T23:12:10.135Z,2.55
2018-01-29T23:14:37.883Z,2.17
2018-01-29T23:17:05.674Z,2.75
2018-01-29T23:19:33.409Z,6.50
2018-01-29T23:22:01.161Z,1.90
2018-01-29T23:24:28.968Z,2.20
2018-01-29T23:26:56.714Z,2.25
2018-01-29T23:29:24.458Z,2.17
2018-01-29T23:31:52.257Z,3.20
2018-01-29T23:34:20.019Z,2.87
2018-01-29T23:36:47.768Z,2.28
2018-01-29T23:39:15.569Z,2.67
2018-01-29T23:41:43.318Z,2.75
2018-01-29T23:44:11.835Z,3.22
2018-01-29T23:46:39.625Z,3.65
2018-01-29T23:49:07.379Z,1.62
2018-01-29T23:51:35.127Z,2.95
2018-01-29T23:54:02.921Z,2.00
2018-01-29T23:56:30.671Z,3.03
2018-01-29T23:58:59.174Z,2.55
